YDVE weather

Dale River Airport
Western Australia, Australia

Public forecast

Using degrees Celsius for public forecast. Weather courtesy of forecast.io.

METAR (pilot weather report)

Closest report is Perth Jandakot Airport, 35.8 nm (66.3 km) WNW. Retrieved 2019/04/26 03:30 UTC (23 minutes ago):

YPJT 260330Z AUTO 08015KT 9999 // NCD 25/10 Q1025 RF00.0/000.0

TAF (pilot weather forecast)

Forecast is more than 12 hours old.

Closest forecast is Perth Jandakot Airport, 35.8 nm (66.3 km) WNW. Retrieved 2019/04/25 00:00 UTC (1 day ago):

TAF YPJT 252230Z 2600/2618 09012KT CAVOK